createdAt,value
2022-11-20T00:02:57.439Z,2.13
2022-11-20T00:06:29.607Z,3.53
2022-11-20T00:10:01.586Z,2.40
2022-11-20T00:13:33.828Z,3.23
2022-11-20T00:17:05.938Z,3.38
2022-11-20T00:20:37.571Z,3.50
2022-11-20T00:24:09.807Z,2.27
2022-11-20T00:27:41.466Z,3.65
2022-11-20T00:31:16.310Z,3.67
2022-11-20T00:34:47.932Z,1.23
2022-11-20T00:38:19.976Z,3.53
2022-11-20T00:41:51.578Z,2.90
2022-11-20T00:45:23.558Z,2.85
2022-11-20T00:48:55.888Z,2.43
2022-11-20T00:52:27.997Z,3.88
2022-11-20T00:56:02.188Z,2.58
2022-11-20T00:59:34.071Z,2.47
2022-11-20T01:03:05.788Z,1.38
2022-11-20T01:06:40.018Z,0.95
2022-11-20T01:10:11.894Z,1.75
2022-11-20T01:13:46.352Z,3.50
2022-11-20T01:17:18.426Z,2.50
2022-11-20T01:20:50.402Z,4.35
2022-11-20T01:24:23.242Z,2.83
2022-11-20T01:27:55.292Z,2.97
2022-11-20T01:31:30.002Z,2.80
2022-11-20T01:35:01.981Z,2.87
2022-11-20T01:38:33.672Z,2.63
2022-11-20T01:42:24.623Z,2.53
2022-11-20T01:46:17.876Z,1.98
2022-11-20T01:49:55.653Z,2.33
2022-11-20T01:53:33.250Z,2.60
2022-11-20T01:57:08.309Z,3.65
2022-11-20T02:00:41.118Z,4.27
2022-11-20T02:04:14.648Z,3.08
2022-11-20T02:07:47.818Z,3.88
2022-11-20T02:11:20.258Z,4.20
2022-11-20T02:14:51.967Z,3.03
2022-11-20T02:18:24.700Z,2.03
2022-11-20T02:22:25.802Z,3.67
2022-11-20T02:25:59.350Z,3.27
2022-11-20T02:29:30.870Z,4.97
2022-11-20T02:33:02.774Z,4.22
2022-11-20T02:36:37.013Z,5.23
2022-11-20T02:40:09.685Z,4.38
2022-11-20T02:43:41.230Z,3.00
2022-11-20T02:47:13.202Z,3.27
2022-11-20T02:50:44.944Z,3.40
2022-11-20T02:54:16.979Z,3.83
2022-11-20T02:57:48.683Z,4.68
2022-11-20T03:01:20.718Z,3.70
2022-11-20T03:04:52.333Z,3.65
2022-11-20T03:08:24.398Z,4.95
2022-11-20T03:11:56.599Z,4.73
2022-11-20T03:15:28.556Z,4.93
2022-11-20T03:19:00.530Z,3.38
2022-11-20T03:22:32.577Z,6.13
2022-11-20T03:26:19.871Z,2.55
2022-11-20T03:29:51.788Z,4.30
2022-11-20T03:33:23.524Z,4.47
2022-11-20T03:36:55.470Z,5.17
2022-11-20T03:40:27.255Z,6.25
2022-11-20T03:44:01.794Z,4.97
2022-11-20T03:47:33.461Z,5.07
2022-11-20T03:51:09.717Z,6.40
2022-11-20T03:54:41.713Z,2.70
2022-11-20T03:58:14.556Z,3.97
2022-11-20T04:01:49.467Z,5.00
2022-11-20T04:05:21.881Z,5.95
2022-11-20T04:08:56.443Z,3.83
2022-11-20T04:12:28.416Z,6.83
2022-11-20T04:16:00.127Z,6.32
2022-11-20T04:19:32.150Z,4.28
2022-11-20T04:23:03.971Z,5.57
2022-11-20T04:26:36.021Z,2.95
2022-11-20T04:30:08.207Z,5.53
2022-11-20T04:33:40.809Z,5.40
2022-11-20T04:37:12.376Z,6.72
2022-11-20T04:40:44.372Z,4.90
2022-11-20T04:44:16.010Z,5.57
2022-11-20T04:47:48.028Z,3.97
2022-11-20T04:51:19.708Z,6.60
2022-11-20T04:54:53.885Z,6.25
2022-11-20T04:58:25.698Z,6.77
2022-11-20T05:01:57.718Z,6.63
2022-11-20T05:05:30.082Z,6.63
2022-11-20T05:09:03.368Z,5.87
2022-11-20T05:12:35.463Z,4.03
2022-11-20T05:16:14.000Z,5.07
2022-11-20T05:19:48.362Z,8.27
2022-11-20T05:23:24.605Z,6.63
2022-11-20T05:26:56.201Z,6.95
2022-11-20T05:30:28.264Z,2.42
2022-11-20T05:34:00.201Z,4.93
2022-11-20T05:37:32.086Z,4.13
2022-11-20T05:41:05.651Z,6.53
2022-11-20T05:44:37.631Z,5.03
2022-11-20T05:48:09.228Z,2.78
2022-11-20T05:51:41.362Z,3.92
2022-11-20T05:55:13.108Z,5.22
2022-11-20T05:58:45.689Z,4.60
2022-11-20T06:02:18.156Z,5.10
2022-11-20T06:05:51.010Z,5.13
2022-11-20T06:09:22.871Z,1.47
2022-11-20T06:12:58.778Z,4.97
2022-11-20T06:16:30.318Z,3.88
2022-11-20T06:20:02.566Z,4.60
2022-11-20T06:23:35.683Z,1.55
2022-11-20T06:27:07.741Z,3.13
2022-11-20T06:30:45.894Z,4.63
2022-11-20T06:34:17.860Z,1.30
2022-11-20T06:37:49.660Z,1.83
2022-11-20T06:41:29.971Z,1.65
2022-11-20T06:45:07.644Z,4.00
2022-11-20T06:48:39.746Z,4.93
2022-11-20T06:52:11.435Z,4.50
2022-11-20T06:55:48.050Z,2.73
2022-11-20T06:59:37.933Z,2.88
2022-11-20T07:03:12.145Z,2.85
2022-11-20T07:06:43.928Z,4.18
2022-11-20T07:10:15.897Z,1.53
2022-11-20T07:13:47.668Z,3.28
2022-11-20T07:17:19.742Z,5.38
2022-11-20T07:20:54.297Z,2.67
2022-11-20T07:24:49.449Z,2.75
2022-11-20T07:28:21.126Z,3.65
2022-11-20T07:31:53.118Z,2.27
2022-11-20T07:35:25.569Z,3.55
2022-11-20T07:38:57.436Z,3.78
2022-11-20T07:42:30.015Z,2.25
2022-11-20T07:46:02.600Z,5.67
2022-11-20T07:49:34.446Z,2.00
2022-11-20T07:53:06.589Z,3.70
2022-11-20T07:56:38.184Z,4.97
2022-11-20T08:00:14.985Z,2.92
2022-11-20T08:03:46.534Z,3.08
2022-11-20T08:07:18.826Z,3.00
2022-11-20T08:10:50.537Z,3.42
2022-11-20T08:14:22.625Z,1.55
2022-11-20T08:18:29.566Z,2.85
2022-11-20T08:21:57.365Z,3.37
2022-11-20T08:25:30.659Z,4.65
2022-11-20T08:29:02.651Z,3.05
2022-11-20T08:32:36.733Z,3.03
2022-11-20T08:36:09.104Z,3.38
2022-11-20T08:39:40.752Z,5.78
2022-11-20T08:43:12.609Z,4.57
2022-11-20T08:46:45.022Z,4.93
2022-11-20T08:50:17.790Z,6.82
2022-11-20T08:53:49.671Z,3.72
2022-11-20T08:57:21.634Z,5.40
2022-11-20T09:00:53.978Z,5.78
2022-11-20T09:04:26.213Z,6.25
2022-11-20T09:07:58.802Z,5.10
2022-11-20T09:11:30.761Z,5.07
2022-11-20T09:15:02.546Z,4.47
2022-11-20T09:18:38.237Z,5.43
2022-11-20T09:22:09.871Z,5.60
2022-11-20T09:25:42.420Z,3.42
2022-11-20T09:29:14.006Z,5.47
2022-11-20T09:32:46.141Z,5.17
2022-11-20T09:36:19.534Z,6.53
2022-11-20T09:39:51.433Z,5.72
2022-11-20T09:43:39.862Z,5.43
2022-11-20T09:47:55.796Z,5.05
2022-11-20T09:51:51.019Z,5.25
2022-11-20T09:55:23.067Z,5.97
2022-11-20T09:59:03.311Z,5.45
2022-11-20T10:03:06.810Z,4.10
2022-11-20T10:06:44.459Z,8.30
2022-11-20T10:10:20.275Z,4.23
2022-11-20T10:14:09.524Z,3.35
2022-11-20T10:18:16.009Z,5.32
2022-11-20T10:22:06.209Z,4.93
2022-11-20T10:25:43.432Z,4.38
2022-11-20T10:29:20.414Z,6.30
2022-11-20T10:33:22.914Z,6.30
2022-11-20T10:37:04.874Z,4.80
2022-11-20T10:40:40.811Z,4.13
2022-11-20T10:44:36.515Z,5.80
2022-11-20T10:48:08.438Z,6.13
2022-11-20T10:51:49.960Z,6.35
2022-11-20T10:55:40.197Z,8.00
2022-11-20T10:59:29.461Z,6.77
2022-11-20T11:03:03.970Z,6.22
2022-11-20T11:06:41.517Z,7.38
2022-11-20T11:10:28.988Z,6.70
2022-11-20T11:14:11.999Z,7.72
2022-11-20T11:17:48.753Z,4.93
2022-11-20T11:21:27.726Z,6.13
2022-11-20T11:25:00.405Z,7.13
2022-11-20T11:28:32.862Z,6.55
2022-11-20T11:32:12.230Z,4.72
2022-11-20T11:35:51.742Z,6.80
2022-11-20T11:39:25.820Z,6.82
2022-11-20T11:43:02.265Z,5.28
2022-11-20T11:46:36.874Z,4.93
2022-11-20T11:50:27.823Z,7.03
2022-11-20T11:54:00.963Z,5.88
2022-11-20T11:57:46.908Z,6.40
2022-11-20T12:01:41.842Z,4.17
2022-11-20T12:05:24.453Z,5.38
2022-11-20T12:09:10.915Z,5.05
2022-11-20T12:12:47.197Z,5.60
2022-11-20T12:16:20.838Z,5.03
2022-11-20T12:19:52.831Z,6.95
2022-11-20T12:23:53.396Z,3.70
2022-11-20T12:27:36.869Z,5.68
2022-11-20T12:31:23.908Z,6.15
2022-11-20T12:35:01.857Z,5.05
2022-11-20T12:38:52.840Z,4.97
2022-11-20T12:42:58.405Z,4.63
2022-11-20T12:47:10.088Z,6.20
2022-11-20T12:51:16.253Z,6.67
2022-11-20T12:55:00.106Z,9.20
2022-11-20T12:58:47.588Z,5.63
2022-11-20T13:02:40.138Z,6.60
2022-11-20T13:06:16.484Z,6.53
2022-11-20T13:09:51.472Z,6.40
2022-11-20T13:13:34.658Z,6.90
2022-11-20T13:17:19.716Z,5.33
2022-11-20T13:20:52.112Z,7.88
2022-11-20T13:24:31.318Z,5.00
2022-11-20T13:28:30.529Z,5.70
2022-11-20T13:32:22.803Z,6.32
2022-11-20T13:36:05.562Z,6.93
2022-11-20T13:39:37.960Z,9.00
2022-11-20T13:43:41.024Z,7.70
2022-11-20T13:47:25.574Z,8.27
2022-11-20T13:51:06.509Z,7.03
2022-11-20T13:54:52.686Z,5.53
2022-11-20T13:58:51.906Z,5.35
2022-11-20T14:02:28.576Z,7.63
2022-11-20T14:06:05.260Z,8.27
2022-11-20T14:09:37.195Z,7.05
2022-11-20T14:13:19.764Z,8.25
2022-11-20T14:16:53.310Z,4.17
2022-11-20T14:20:28.600Z,8.70
2022-11-20T14:24:07.845Z,7.70
2022-11-20T14:27:41.872Z,8.18
2022-11-20T14:31:23.684Z,8.37
2022-11-20T14:34:55.461Z,8.80
2022-11-20T14:38:29.825Z,7.65
2022-11-20T14:42:02.048Z,8.43
2022-11-20T14:45:34.041Z,5.57
2022-11-20T14:49:06.470Z,5.38
2022-11-20T14:52:38.550Z,7.97
2022-11-20T14:56:10.135Z,7.45
2022-11-20T14:59:42.301Z,6.50
2022-11-20T15:03:17.882Z,8.55
2022-11-20T15:06:52.989Z,8.97
2022-11-20T15:10:27.351Z,8.60
2022-11-20T15:14:04.459Z,8.00
2022-11-20T15:17:39.838Z,9.20
2022-11-20T15:21:14.183Z,8.93
2022-11-20T15:24:47.390Z,9.13
2022-11-20T15:28:24.024Z,8.90
2022-11-20T15:31:55.796Z,8.50
2022-11-20T15:35:28.019Z,9.95
2022-11-20T15:38:59.603Z,9.68
2022-11-20T15:42:31.667Z,8.13
2022-11-20T15:46:12.532Z,9.02
2022-11-20T15:49:44.644Z,8.23
2022-11-20T15:53:16.374Z,10.00
2022-11-20T15:56:49.914Z,9.15
2022-11-20T16:00:23.818Z,10.02
2022-11-20T16:03:55.824Z,8.83
2022-11-20T16:07:27.644Z,10.00
2022-11-20T16:10:59.577Z,9.45
2022-11-20T16:14:50.251Z,10.85
2022-11-20T16:18:22.806Z,18.13
2022-11-20T16:21:59.627Z,15.98
2022-11-20T16:25:34.555Z,11.68
2022-11-20T16:29:07.552Z,8.17
2022-11-20T16:32:39.786Z,7.85
2022-11-20T16:36:16.083Z,8.60
2022-11-20T16:39:48.272Z,8.93
2022-11-20T16:43:19.866Z,7.65
2022-11-20T16:46:51.941Z,8.48
2022-11-20T16:50:23.465Z,10.05
2022-11-20T16:53:58.805Z,4.17
2022-11-20T16:57:33.495Z,8.23
2022-11-20T17:01:07.496Z,8.20
2022-11-20T17:04:39.551Z,8.47
2022-11-20T17:08:11.495Z,8.18
2022-11-20T17:11:43.499Z,9.52
2022-11-20T17:15:15.946Z,11.43
2022-11-20T17:18:48.228Z,10.88
2022-11-20T17:22:20.112Z,9.68
2022-11-20T17:25:51.760Z,9.27
2022-11-20T17:29:24.463Z,9.20
2022-11-20T17:32:56.242Z,11.88
2022-11-20T17:36:29.689Z,10.73
2022-11-20T17:40:01.377Z,11.93
2022-11-20T17:43:35.905Z,12.15
2022-11-20T17:47:08.802Z,11.80
2022-11-20T17:50:40.699Z,12.77
2022-11-20T17:54:12.500Z,12.27
2022-11-20T17:57:53.494Z,13.88
2022-11-20T18:01:25.197Z,7.13
2022-11-20T18:04:57.232Z,7.57
2022-11-20T18:08:29.568Z,11.30
2022-11-20T18:12:02.051Z,11.25
2022-11-20T18:15:33.955Z,13.43
2022-11-20T18:19:05.843Z,9.50
2022-11-20T18:22:37.618Z,9.77
2022-11-20T18:26:09.648Z,11.70
2022-11-20T18:29:41.352Z,12.45
2022-11-20T18:33:13.512Z,14.93
2022-11-20T18:36:45.820Z,13.27
2022-11-20T18:40:17.974Z,12.37
2022-11-20T18:44:08.089Z,6.95
2022-11-20T18:47:41.064Z,11.05
2022-11-20T18:51:16.320Z,11.63
2022-11-20T18:54:49.026Z,13.30
2022-11-20T18:58:20.707Z,5.72
2022-11-20T19:01:52.822Z,7.60
2022-11-20T19:05:24.633Z,7.53
2022-11-20T19:08:56.954Z,6.78
2022-11-20T19:12:28.789Z,9.30
2022-11-20T19:16:05.625Z,7.70
2022-11-20T19:19:37.816Z,7.95
2022-11-20T19:23:09.891Z,11.80
2022-11-20T19:26:41.755Z,11.90
2022-11-20T19:30:14.175Z,10.70
2022-11-20T19:33:46.640Z,6.32
2022-11-20T19:37:19.106Z,10.43
2022-11-20T19:40:51.302Z,9.15
2022-11-20T19:44:23.379Z,10.10
2022-11-20T19:48:10.877Z,8.05
2022-11-20T19:51:48.265Z,9.13
2022-11-20T19:55:20.277Z,9.13
2022-11-20T19:58:58.116Z,10.25
2022-11-20T20:02:30.878Z,5.87
2022-11-20T20:06:06.053Z,9.13
2022-11-20T20:09:37.812Z,8.30
2022-11-20T20:13:10.319Z,9.20
2022-11-20T20:16:43.257Z,9.00
2022-11-20T20:20:15.278Z,9.98
2022-11-20T20:23:51.688Z,8.85
2022-11-20T20:27:23.939Z,9.87
2022-11-20T20:30:56.797Z,4.45
2022-11-20T20:34:31.903Z,8.32
2022-11-20T20:38:03.962Z,8.97
2022-11-20T20:41:36.395Z,10.13
2022-11-20T20:45:08.646Z,7.45
2022-11-20T20:48:42.001Z,10.40
2022-11-20T20:52:15.077Z,6.10
2022-11-20T20:56:04.378Z,7.40
2022-11-20T20:59:36.412Z,9.55
2022-11-20T21:03:09.304Z,12.20
2022-11-20T21:06:41.199Z,10.20
2022-11-20T21:10:13.285Z,9.25
2022-11-20T21:13:48.440Z,6.30
2022-11-20T21:17:21.170Z,9.70
2022-11-20T21:21:12.014Z,6.03
2022-11-20T21:24:43.954Z,7.03
2022-11-20T21:28:18.389Z,6.63
2022-11-20T21:31:51.197Z,5.72
2022-11-20T21:35:22.917Z,7.30
2022-11-20T21:38:56.106Z,8.33
2022-11-20T21:42:27.912Z,8.02
2022-11-20T21:46:07.856Z,7.82
2022-11-20T21:49:39.756Z,9.10
2022-11-20T21:53:11.672Z,4.95
2022-11-20T21:56:43.358Z,7.07
2022-11-20T22:00:15.482Z,6.67
2022-11-20T22:03:49.359Z,5.97
2022-11-20T22:07:23.373Z,5.28
2022-11-20T22:11:00.566Z,7.00
2022-11-20T22:14:33.064Z,6.77
2022-11-20T22:18:13.856Z,5.20
2022-11-20T22:21:46.251Z,6.90
2022-11-20T22:25:17.942Z,6.57
2022-11-20T22:28:51.523Z,6.63
2022-11-20T22:32:23.853Z,5.97
2022-11-20T22:36:07.494Z,5.97
2022-11-20T22:39:39.048Z,6.25
2022-11-20T22:43:10.958Z,7.43
2022-11-20T22:46:42.734Z,5.72
2022-11-20T22:50:14.777Z,6.03
2022-11-20T22:53:47.117Z,7.97
2022-11-20T22:57:19.049Z,6.03
2022-11-20T23:00:51.194Z,5.67
2022-11-20T23:04:23.288Z,7.80
2022-11-20T23:07:55.193Z,5.88
2022-11-20T23:11:28.930Z,6.03
2022-11-20T23:15:00.590Z,5.63
2022-11-20T23:18:33.180Z,7.93
2022-11-20T23:22:04.766Z,8.23
2022-11-20T23:25:36.621Z,9.00
2022-11-20T23:29:08.740Z,7.45
2022-11-20T23:32:40.856Z,8.45
2022-11-20T23:36:13.962Z,6.20
2022-11-20T23:39:45.962Z,7.68
2022-11-20T23:43:19.355Z,8.05
2022-11-20T23:46:51.702Z,6.60
2022-11-20T23:50:23.498Z,9.20
2022-11-20T23:53:57.510Z,6.80
2022-11-20T23:57:32.264Z,7.68
